Sprague, Nebraska
Current Conditions -  °F | °C
As of 11:34 AM on Sunday 23 Nov 2014 (Local Time) from KLNK Reporting Station
Overcast Overcast  
Wind Chill: 39°   Ceiling: 2300
Heat Index: 48°   Visibility: 10mi
Dew Point: 38°   Wind: 32mph
Humidity: 68%   Direction: 330°NNW
Pressure: 29.52"   Gusts: 39mph
Location:  40.63°N, 96.74°W
Report Text: KLNK 231734Z 33028G34KT 10SM BKN023 BKN047 OVC065 09/03 A2952 RMK AO2 PK WND 34034/1731 T00890033
Loading
Personal Weather Stations






























Interactive Weather Map New forecast layout! Learn more

10-Day Weather Forecast

Advertisements
Track Severe Weather on mobile